×
Zaloguj się

Posiadasz już konto w portalu pasazer.com? Zaloguj się i zacznij korzystać ze swoich przywilejów zarejestrowanego użytkownika.


lub


Modlin przygotowany na zimę


Na Okanciu dziś duży ruch, choć pogoda (podstawa chmur teoretycznie 30-60 metrów) powinna psuć szyki, wszystkie Ryanairy lądują (ku uciesze przylatujących do Wa-wy i udręce wylatujących) na shocking airport xD // Aktualny METAR dla EPWA podobny jak wcześniejsze, a wszystko ląduje bez zakłóceń. EPWA 081100Z VRB03KT 1300 R33/1100VP1500D BR BKN001 M08/M08 Q1018 R33/2///80 BECMG 1500 BR BKN002=

08/12/2012 12:28,  
<>

gość_e351f - Profil
gość_e351f
  

  
BVA, BLQ i BCN także skończyły lot w WAW, podobnie jak pierwszy poranny rejs do Łodzi z DTM.
08/12/2012 14:01  

  
WMI w soboty mają wolne ;)
zobacz link
08/12/2012 12:29  

  
Na Okanciu dziś duży ruch, choć pogoda (podstawa chmur teoretycznie 30-60 metrów) powinna psuć szyki, wszystkie Ryanairy lądują (ku uciesze przylatujących do Wa-wy i udręce wylatujących) na shocking airport xD // Aktualny METAR dla EPWA podobny jak wcześniejsze, a wszystko ląduje bez zakłóceń. EPWA 081100Z VRB03KT 1300 R33/1100VP1500D BR BKN001 M08/M08 Q1018
R33/2///80 BECMG 1500 BR BKN002=
08/12/2012 12:28  

reklama
reklama
  

<>


Wylot z:

Przylot do:

  • Data wylotu:

  • Data powrotu:

Pasażerowie:

Cel podróży:
  • Data wyjazdu:
  • Data powrotu:

Kraj podróży:

Okazje z lotniska
  • Okazje pasażera
Sprawdź wszystkie